Airport View

Enter AWOS ICAO identifier for current METAR.

ex. KFNL

KCXP 170915Z AUTO 00000KT 10SM CLR 01/M06 A3037 RMK AO2

17 Nov 2019 09:23

Frequency: 119.925

Phone: 775-884-4708

Other Area AWOS: KMEV - KRNO - KTRK - KTVL

TAF KCXP 170525Z 1706/1806 10008KT P6SM SCT250 FM171900 08009KT P6SM SCT250 FM180200 VRB03KT P6SM SCT250